sensor_id;sensor_type;location;lat;lon;timestamp;P1;durP1;ratioP1;P2;durP2;ratioP2
44606;SDS011;30315;46.072;14.474;2023-12-14T00:01:59;5.05;;;4.20;;
44606;SDS011;30315;46.072;14.474;2023-12-14T00:04:46;5.13;;;4.75;;
44606;SDS011;30315;46.072;14.474;2023-12-14T00:07:17;4.57;;;4.32;;
44606;SDS011;30315;46.072;14.474;2023-12-14T00:09:46;5.25;;;4.85;;
44606;SDS011;30315;46.072;14.474;2023-12-14T00:12:15;5.68;;;5.18;;
44606;SDS011;30315;46.072;14.474;2023-12-14T00:14:57;5.85;;;4.97;;
44606;SDS011;30315;46.072;14.474;2023-12-14T00:17:26;5.90;;;4.80;;
44606;SDS011;30315;46.072;14.474;2023-12-14T00:19:55;6.07;;;5.45;;
44606;SDS011;30315;46.072;14.474;2023-12-14T00:22:24;4.82;;;4.43;;
44606;SDS011;30315;46.072;14.474;2023-12-14T00:25:05;5.47;;;5.18;;
44606;SDS011;30315;46.072;14.474;2023-12-14T00:27:37;5.03;;;4.68;;
44606;SDS011;30315;46.072;14.474;2023-12-14T00:32:56;6.13;;;4.88;;
44606;SDS011;30315;46.072;14.474;2023-12-14T00:35:24;5.38;;;4.88;;
44606;SDS011;30315;46.072;14.474;2023-12-14T00:38:06;4.00;;;3.80;;
44606;SDS011;30315;46.072;14.474;2023-12-14T00:41:04;5.55;;;5.15;;
44606;SDS011;30315;46.072;14.474;2023-12-14T00:43:53;7.32;;;5.65;;
44606;SDS011;30315;46.072;14.474;2023-12-14T00:46:24;5.25;;;4.82;;
44606;SDS011;30315;46.072;14.474;2023-12-14T00:48:53;5.40;;;4.90;;
44606;SDS011;30315;46.072;14.474;2023-12-14T00:51:21;5.78;;;5.32;;
44606;SDS011;30315;46.072;14.474;2023-12-14T00:53:49;5.10;;;4.80;;
44606;SDS011;30315;46.072;14.474;2023-12-14T00:56:21;4.38;;;4.15;;
44606;SDS011;30315;46.072;14.474;2023-12-14T00:58:50;6.70;;;5.93;;
44606;SDS011;30315;46.072;14.474;2023-12-14T01:01:20;5.40;;;5.00;;
44606;SDS011;30315;46.072;14.474;2023-12-14T01:03:48;6.07;;;5.38;;
44606;SDS011;30315;46.072;14.474;2023-12-14T01:06:15;5.93;;;4.78;;
44606;SDS011;30315;46.072;14.474;2023-12-14T01:08:43;6.82;;;5.65;;
44606;SDS011;30315;46.072;14.474;2023-12-14T01:11:11;7.85;;;5.75;;
44606;SDS011;30315;46.072;14.474;2023-12-14T01:13:41;10.70;;;6.25;;
44606;SDS011;30315;46.072;14.474;2023-12-14T01:16:10;8.43;;;7.10;;
44606;SDS011;30315;46.072;14.474;2023-12-14T01:18:40;6.88;;;6.22;;
44606;SDS011;30315;46.072;14.474;2023-12-14T01:21:08;8.60;;;5.93;;
44606;SDS011;30315;46.072;14.474;2023-12-14T01:23:38;6.95;;;6.32;;
44606;SDS011;30315;46.072;14.474;2023-12-14T01:26:07;6.47;;;5.82;;
44606;SDS011;30315;46.072;14.474;2023-12-14T01:28:40;6.47;;;5.93;;
44606;SDS011;30315;46.072;14.474;2023-12-14T01:31:08;6.68;;;6.07;;
44606;SDS011;30315;46.072;14.474;2023-12-14T01:37:43;6.95;;;6.25;;
44606;SDS011;30315;46.072;14.474;2023-12-14T01:40:11;6.57;;;5.88;;
44606;SDS011;30315;46.072;14.474;2023-12-14T01:42:39;5.53;;;5.13;;
44606;SDS011;30315;46.072;14.474;2023-12-14T01:45:09;7.45;;;6.68;;
44606;SDS011;30315;46.072;14.474;2023-12-14T01:47:37;7.43;;;6.35;;
44606;SDS011;30315;46.072;14.474;2023-12-14T01:50:06;7.10;;;6.50;;
44606;SDS011;30315;46.072;14.474;2023-12-14T01:52:36;6.68;;;5.90;;
44606;SDS011;30315;46.072;14.474;2023-12-14T01:55:09;7.00;;;6.30;;
44606;SDS011;30315;46.072;14.474;2023-12-14T01:57:37;7.22;;;6.40;;
44606;SDS011;30315;46.072;14.474;2023-12-14T02:00:05;14.30;;;6.50;;
44606;SDS011;30315;46.072;14.474;2023-12-14T02:02:34;5.75;;;5.25;;
44606;SDS011;30315;46.072;14.474;2023-12-14T02:05:10;6.72;;;6.22;;
44606;SDS011;30315;46.072;14.474;2023-12-14T02:07:50;6.93;;;6.22;;
44606;SDS011;30315;46.072;14.474;2023-12-14T02:10:23;6.75;;;6.15;;
44606;SDS011;30315;46.072;14.474;2023-12-14T02:12:51;6.38;;;5.78;;
44606;SDS011;30315;46.072;14.474;2023-12-14T02:15:22;6.28;;;5.78;;
44606;SDS011;30315;46.072;14.474;2023-12-14T02:17:59;6.90;;;6.30;;
44606;SDS011;30315;46.072;14.474;2023-12-14T02:20:30;6.97;;;6.38;;
44606;SDS011;30315;46.072;14.474;2023-12-14T02:23:05;7.05;;;6.15;;
44606;SDS011;30315;46.072;14.474;2023-12-14T02:29:27;11.40;;;7.72;;
44606;SDS011;30315;46.072;14.474;2023-12-14T02:35:35;7.57;;;6.82;;
44606;SDS011;30315;46.072;14.474;2023-12-14T02:38:04;7.13;;;6.53;;
44606;SDS011;30315;46.072;14.474;2023-12-14T02:41:08;6.57;;;5.93;;
44606;SDS011;30315;46.072;14.474;2023-12-14T02:43:54;7.00;;;5.53;;
44606;SDS011;30315;46.072;14.474;2023-12-14T02:51:43;4.50;;;4.10;;
44606;SDS011;30315;46.072;14.474;2023-12-14T03:02:36;6.80;;;5.70;;
44606;SDS011;30315;46.072;14.474;2023-12-14T03:05:24;4.35;;;4.13;;
44606;SDS011;30315;46.072;14.474;2023-12-14T03:08:06;6.07;;;5.30;;
44606;SDS011;30315;46.072;14.474;2023-12-14T03:10:52;5.65;;;5.25;;
44606;SDS011;30315;46.072;14.474;2023-12-14T03:13:47;8.10;;;5.45;;
44606;SDS011;30315;46.072;14.474;2023-12-14T03:16:30;5.05;;;4.72;;
44606;SDS011;30315;46.072;14.474;2023-12-14T03:19:21;5.32;;;4.93;;
44606;SDS011;30315;46.072;14.474;2023-12-14T03:22:09;6.50;;;5.85;;
44606;SDS011;30315;46.072;14.474;2023-12-14T03:25:35;6.50;;;5.85;;
44606;SDS011;30315;46.072;14.474;2023-12-14T03:32:30;6.30;;;5.25;;
44606;SDS011;30315;46.072;14.474;2023-12-14T03:39:28;7.53;;;6.80;;
44606;SDS011;30315;46.072;14.474;2023-12-14T03:42:02;9.73;;;6.85;;
44606;SDS011;30315;46.072;14.474;2023-12-14T03:48:31;6.65;;;6.15;;
44606;SDS011;30315;46.072;14.474;2023-12-14T03:51:32;6.22;;;5.80;;
44606;SDS011;30315;46.072;14.474;2023-12-14T03:54:19;7.95;;;6.47;;
44606;SDS011;30315;46.072;14.474;2023-12-14T03:57:07;8.68;;;6.30;;
44606;SDS011;30315;46.072;14.474;2023-12-14T03:59:48;5.97;;;5.28;;
44606;SDS011;30315;46.072;14.474;2023-12-14T04:02:18;8.00;;;5.68;;
44606;SDS011;30315;46.072;14.474;2023-12-14T04:05:07;7.20;;;6.57;;
44606;SDS011;30315;46.072;14.474;2023-12-14T04:07:54;6.35;;;5.85;;
44606;SDS011;30315;46.072;14.474;2023-12-14T04:10:23;6.22;;;5.63;;
44606;SDS011;30315;46.072;14.474;2023-12-14T04:13:13;6.18;;;5.63;;
44606;SDS011;30315;46.072;14.474;2023-12-14T04:16:03;5.65;;;5.25;;
44606;SDS011;30315;46.072;14.474;2023-12-14T04:18:41;7.25;;;6.32;;
44606;SDS011;30315;46.072;14.474;2023-12-14T04:21:28;8.43;;;6.72;;
44606;SDS011;30315;46.072;14.474;2023-12-14T04:23:57;5.43;;;5.13;;
44606;SDS011;30315;46.072;14.474;2023-12-14T04:26:36;5.95;;;5.60;;
44606;SDS011;30315;46.072;14.474;2023-12-14T04:33:06;6.30;;;5.78;;
44606;SDS011;30315;46.072;14.474;2023-12-14T04:35:48;6.38;;;5.82;;
44606;SDS011;30315;46.072;14.474;2023-12-14T04:38:21;7.93;;;6.90;;
44606;SDS011;30315;46.072;14.474;2023-12-14T04:41:05;8.45;;;7.65;;
44606;SDS011;30315;46.072;14.474;2023-12-14T04:43:33;7.00;;;6.15;;
44606;SDS011;30315;46.072;14.474;2023-12-14T04:46:14;7.97;;;6.72;;
44606;SDS011;30315;46.072;14.474;2023-12-14T04:48:45;7.32;;;6.35;;
44606;SDS011;30315;46.072;14.474;2023-12-14T04:51:16;7.88;;;6.75;;
44606;SDS011;30315;46.072;14.474;2023-12-14T04:54:06;6.72;;;5.97;;
44606;SDS011;30315;46.072;14.474;2023-12-14T04:56:57;9.00;;;7.38;;
44606;SDS011;30315;46.072;14.474;2023-12-14T04:59:34;6.63;;;6.07;;
44606;SDS011;30315;46.072;14.474;2023-12-14T05:02:22;8.48;;;6.60;;
44606;SDS011;30315;46.072;14.474;2023-12-14T05:04:59;6.90;;;6.15;;
44606;SDS011;30315;46.072;14.474;2023-12-14T05:07:51;7.55;;;6.93;;
44606;SDS011;30315;46.072;14.474;2023-12-14T05:10:38;7.40;;;6.32;;
44606;SDS011;30315;46.072;14.474;2023-12-14T05:13:29;16.60;;;7.03;;
44606;SDS011;30315;46.072;14.474;2023-12-14T05:16:17;6.82;;;6.10;;
44606;SDS011;30315;46.072;14.474;2023-12-14T05:19:09;6.70;;;6.10;;
44606;SDS011;30315;46.072;14.474;2023-12-14T05:21:52;7.05;;;6.47;;
44606;SDS011;30315;46.072;14.474;2023-12-14T05:24:34;6.75;;;6.18;;
44606;SDS011;30315;46.072;14.474;2023-12-14T05:27:09;7.03;;;6.43;;
44606;SDS011;30315;46.072;14.474;2023-12-14T05:29:49;6.72;;;6.00;;
44606;SDS011;30315;46.072;14.474;2023-12-14T05:33:02;7.68;;;7.07;;
44606;SDS011;30315;46.072;14.474;2023-12-14T05:35:58;8.98;;;7.95;;
44606;SDS011;30315;46.072;14.474;2023-12-14T05:38:50;9.63;;;6.72;;
44606;SDS011;30315;46.072;14.474;2023-12-14T05:41:51;8.38;;;7.57;;
44606;SDS011;30315;46.072;14.474;2023-12-14T05:44:51;6.78;;;6.32;;
44606;SDS011;30315;46.072;14.474;2023-12-14T05:47:46;13.95;;;7.47;;
44606;SDS011;30315;46.072;14.474;2023-12-14T05:50:37;8.43;;;7.60;;
44606;SDS011;30315;46.072;14.474;2023-12-14T05:53:29;8.27;;;7.07;;
44606;SDS011;30315;46.072;14.474;2023-12-14T05:56:00;7.88;;;6.70;;
44606;SDS011;30315;46.072;14.474;2023-12-14T05:58:30;9.98;;;9.10;;
44606;SDS011;30315;46.072;14.474;2023-12-14T06:12:09;15.50;;;9.32;;
44606;SDS011;30315;46.072;14.474;2023-12-14T06:15:32;13.63;;;9.25;;
44606;SDS011;30315;46.072;14.474;2023-12-14T06:18:11;10.15;;;8.93;;
44606;SDS011;30315;46.072;14.474;2023-12-14T06:20:41;11.07;;;8.65;;
44606;SDS011;30315;46.072;14.474;2023-12-14T06:23:09;12.32;;;8.27;;
44606;SDS011;30315;46.072;14.474;2023-12-14T06:25:59;10.38;;;9.10;;
44606;SDS011;30315;46.072;14.474;2023-12-14T06:28:50;15.40;;;8.23;;
44606;SDS011;30315;46.072;14.474;2023-12-14T06:31:33;16.02;;;9.30;;
44606;SDS011;30315;46.072;14.474;2023-12-14T06:34:02;9.70;;;8.73;;
44606;SDS011;30315;46.072;14.474;2023-12-14T06:36:43;10.75;;;8.05;;
44606;SDS011;30315;46.072;14.474;2023-12-14T06:39:44;10.30;;;9.13;;
44606;SDS011;30315;46.072;14.474;2023-12-14T06:42:13;10.75;;;8.68;;
44606;SDS011;30315;46.072;14.474;2023-12-14T06:44:46;7.63;;;6.93;;
44606;SDS011;30315;46.072;14.474;2023-12-14T06:47:25;10.43;;;9.35;;
44606;SDS011;30315;46.072;14.474;2023-12-14T06:49:52;11.90;;;7.60;;
44606;SDS011;30315;46.072;14.474;2023-12-14T06:52:29;10.60;;;8.02;;
44606;SDS011;30315;46.072;14.474;2023-12-14T06:54:56;10.80;;;7.32;;
44606;SDS011;30315;46.072;14.474;2023-12-14T06:57:25;9.43;;;7.97;;
44606;SDS011;30315;46.072;14.474;2023-12-14T06:59:53;11.48;;;7.20;;
44606;SDS011;30315;46.072;14.474;2023-12-14T07:02:20;9.10;;;8.18;;
44606;SDS011;30315;46.072;14.474;2023-12-14T07:05:22;11.52;;;8.02;;
44606;SDS011;30315;46.072;14.474;2023-12-14T09:12:13;8.52;;;7.63;;
44606;SDS011;30315;46.072;14.474;2023-12-14T09:18:00;10.02;;;7.07;;
44606;SDS011;30315;46.072;14.474;2023-12-14T09:20:32;8.50;;;7.70;;
44606;SDS011;30315;46.072;14.474;2023-12-14T09:23:02;9.57;;;6.43;;
44606;SDS011;30315;46.072;14.474;2023-12-14T09:25:29;6.50;;;5.90;;
44606;SDS011;30315;46.072;14.474;2023-12-14T09:29:01;7.47;;;6.80;;
44606;SDS011;30315;46.072;14.474;2023-12-14T09:31:29;9.23;;;7.45;;
44606;SDS011;30315;46.072;14.474;2023-12-14T09:33:58;7.70;;;6.38;;
44606;SDS011;30315;46.072;14.474;2023-12-14T09:36:30;10.43;;;7.40;;
44606;SDS011;30315;46.072;14.474;2023-12-14T09:39:11;6.53;;;5.93;;
44606;SDS011;30315;46.072;14.474;2023-12-14T09:41:45;7.40;;;6.70;;
44606;SDS011;30315;46.072;14.474;2023-12-14T09:45:00;9.73;;;7.57;;
44606;SDS011;30315;46.072;14.474;2023-12-14T09:47:27;9.75;;;7.97;;
44606;SDS011;30315;46.072;14.474;2023-12-14T09:49:55;10.15;;;7.25;;
44606;SDS011;30315;46.072;14.474;2023-12-14T09:52:23;7.32;;;6.68;;
44606;SDS011;30315;46.072;14.474;2023-12-14T09:54:51;7.13;;;6.50;;
44606;SDS011;30315;46.072;14.474;2023-12-14T09:57:22;16.58;;;7.97;;
44606;SDS011;30315;46.072;14.474;2023-12-14T09:59:51;20.85;;;8.32;;
44606;SDS011;30315;46.072;14.474;2023-12-14T10:02:38;8.68;;;7.90;;
44606;SDS011;30315;46.072;14.474;2023-12-14T10:05:08;10.15;;;7.63;;
44606;SDS011;30315;46.072;14.474;2023-12-14T10:07:43;9.38;;;7.78;;
44606;SDS011;30315;46.072;14.474;2023-12-14T10:10:11;8.60;;;7.70;;
44606;SDS011;30315;46.072;14.474;2023-12-14T10:12:50;7.80;;;6.95;;
44606;SDS011;30315;46.072;14.474;2023-12-14T10:15:46;10.68;;;8.27;;
44606;SDS011;30315;46.072;14.474;2023-12-14T10:22:02;14.85;;;8.23;;
44606;SDS011;30315;46.072;14.474;2023-12-14T10:24:34;8.57;;;6.57;;
44606;SDS011;30315;46.072;14.474;2023-12-14T10:27:06;9.30;;;8.00;;
44606;SDS011;30315;46.072;14.474;2023-12-14T10:32:43;10.60;;;7.55;;
44606;SDS011;30315;46.072;14.474;2023-12-14T10:35:16;10.88;;;7.38;;
44606;SDS011;30315;46.072;14.474;2023-12-14T10:37:44;10.13;;;7.88;;
44606;SDS011;30315;46.072;14.474;2023-12-14T10:43:51;7.97;;;6.78;;
44606;SDS011;30315;46.072;14.474;2023-12-14T10:46:47;12.77;;;7.85;;
44606;SDS011;30315;46.072;14.474;2023-12-14T10:50:16;8.20;;;7.40;;
44606;SDS011;30315;46.072;14.474;2023-12-14T10:56:27;11.70;;;8.55;;
44606;SDS011;30315;46.072;14.474;2023-12-14T10:59:59;8.32;;;6.32;;
44606;SDS011;30315;46.072;14.474;2023-12-14T11:03:07;7.90;;;6.88;;
44606;SDS011;30315;46.072;14.474;2023-12-14T11:06:15;6.95;;;6.45;;
44606;SDS011;30315;46.072;14.474;2023-12-14T11:09:25;7.55;;;6.70;;
44606;SDS011;30315;46.072;14.474;2023-12-14T11:12:33;8.02;;;7.30;;
44606;SDS011;30315;46.072;14.474;2023-12-14T11:15:19;9.52;;;8.00;;
44606;SDS011;30315;46.072;14.474;2023-12-14T11:18:28;6.90;;;6.03;;
44606;SDS011;30315;46.072;14.474;2023-12-14T11:23:39;8.20;;;7.30;;
44606;SDS011;30315;46.072;14.474;2023-12-14T11:30:02;11.27;;;8.65;;
44606;SDS011;30315;46.072;14.474;2023-12-14T11:32:49;10.75;;;7.05;;
44606;SDS011;30315;46.072;14.474;2023-12-14T11:35:20;7.47;;;6.82;;
44606;SDS011;30315;46.072;14.474;2023-12-14T11:45:41;6.68;;;6.05;;
44606;SDS011;30315;46.072;14.474;2023-12-14T11:58:54;10.98;;;7.57;;
44606;SDS011;30315;46.072;14.474;2023-12-14T12:08:32;8.10;;;7.30;;
44606;SDS011;30315;46.072;14.474;2023-12-14T12:11:09;7.82;;;7.13;;
44606;SDS011;30315;46.072;14.474;2023-12-14T12:13:39;7.95;;;7.13;;
44606;SDS011;30315;46.072;14.474;2023-12-14T12:16:22;9.15;;;8.32;;
44606;SDS011;30315;46.072;14.474;2023-12-14T12:30:01;8.88;;;7.97;;
44606;SDS011;30315;46.072;14.474;2023-12-14T12:32:45;8.35;;;7.15;;
44606;SDS011;30315;46.072;14.474;2023-12-14T12:35:19;14.43;;;8.05;;
44606;SDS011;30315;46.072;14.474;2023-12-14T12:38:41;13.73;;;9.80;;
44606;SDS011;30315;46.072;14.474;2023-12-14T12:41:21;8.55;;;7.82;;
44606;SDS011;30315;46.072;14.474;2023-12-14T12:43:59;12.55;;;7.45;;
44606;SDS011;30315;46.072;14.474;2023-12-14T12:49:48;10.50;;;7.07;;
44606;SDS011;30315;46.072;14.474;2023-12-14T12:52:41;7.93;;;6.60;;
44606;SDS011;30315;46.072;14.474;2023-12-14T12:55:16;7.47;;;6.78;;
44606;SDS011;30315;46.072;14.474;2023-12-14T12:58:01;9.50;;;7.53;;
44606;SDS011;30315;46.072;14.474;2023-12-14T13:00:32;8.63;;;7.18;;
44606;SDS011;30315;46.072;14.474;2023-12-14T13:03:07;8.90;;;6.22;;
44606;SDS011;30315;46.072;14.474;2023-12-14T13:05:34;8.25;;;7.45;;
44606;SDS011;30315;46.072;14.474;2023-12-14T13:08:03;8.07;;;7.38;;
44606;SDS011;30315;46.072;14.474;2023-12-14T13:10:31;7.47;;;6.75;;
44606;SDS011;30315;46.072;14.474;2023-12-14T13:13:00;6.93;;;6.28;;
44606;SDS011;30315;46.072;14.474;2023-12-14T13:15:29;8.02;;;6.68;;
44606;SDS011;30315;46.072;14.474;2023-12-14T13:18:05;7.15;;;6.45;;
44606;SDS011;30315;46.072;14.474;2023-12-14T13:20:40;8.75;;;7.28;;
44606;SDS011;30315;46.072;14.474;2023-12-14T13:23:12;7.30;;;6.40;;
44606;SDS011;30315;46.072;14.474;2023-12-14T13:25:42;13.55;;;8.20;;
44606;SDS011;30315;46.072;14.474;2023-12-14T13:28:43;7.63;;;6.68;;
44606;SDS011;30315;46.072;14.474;2023-12-14T13:33:45;8.27;;;7.47;;
44606;SDS011;30315;46.072;14.474;2023-12-14T13:36:15;15.10;;;7.28;;
44606;SDS011;30315;46.072;14.474;2023-12-14T13:38:47;6.78;;;6.22;;
44606;SDS011;30315;46.072;14.474;2023-12-14T13:41:19;7.82;;;6.47;;
44606;SDS011;30315;46.072;14.474;2023-12-14T13:44:01;9.05;;;7.28;;
44606;SDS011;30315;46.072;14.474;2023-12-14T13:46:32;7.20;;;6.60;;
44606;SDS011;30315;46.072;14.474;2023-12-14T13:49:12;6.65;;;6.13;;
44606;SDS011;30315;46.072;14.474;2023-12-14T13:51:42;6.93;;;6.25;;
44606;SDS011;30315;46.072;14.474;2023-12-14T13:54:12;6.72;;;6.00;;
44606;SDS011;30315;46.072;14.474;2023-12-14T13:56:40;8.68;;;6.93;;
44606;SDS011;30315;46.072;14.474;2023-12-14T13:59:13;7.10;;;6.30;;
44606;SDS011;30315;46.072;14.474;2023-12-14T14:01:42;7.45;;;6.75;;
44606;SDS011;30315;46.072;14.474;2023-12-14T14:04:25;7.20;;;6.53;;
44606;SDS011;30315;46.072;14.474;2023-12-14T14:06:53;10.25;;;7.40;;
44606;SDS011;30315;46.072;14.474;2023-12-14T14:09:20;8.10;;;7.30;;
44606;SDS011;30315;46.072;14.474;2023-12-14T14:11:49;8.07;;;6.88;;
44606;SDS011;30315;46.072;14.474;2023-12-14T14:14:18;11.20;;;6.97;;
44606;SDS011;30315;46.072;14.474;2023-12-14T14:16:48;7.47;;;6.82;;
44606;SDS011;30315;46.072;14.474;2023-12-14T14:19:16;17.02;;;8.52;;
44606;SDS011;30315;46.072;14.474;2023-12-14T14:21:48;7.43;;;6.78;;
44606;SDS011;30315;46.072;14.474;2023-12-14T14:24:17;8.90;;;7.82;;
44606;SDS011;30315;46.072;14.474;2023-12-14T14:26:46;10.80;;;7.57;;
44606;SDS011;30315;46.072;14.474;2023-12-14T14:29:15;12.70;;;6.97;;
44606;SDS011;30315;46.072;14.474;2023-12-14T14:31:45;9.35;;;6.55;;
44606;SDS011;30315;46.072;14.474;2023-12-14T14:34:13;6.85;;;6.25;;
44606;SDS011;30315;46.072;14.474;2023-12-14T14:36:42;8.98;;;7.00;;
44606;SDS011;30315;46.072;14.474;2023-12-14T14:39:24;11.98;;;7.75;;
44606;SDS011;30315;46.072;14.474;2023-12-14T14:41:57;10.90;;;7.82;;
44606;SDS011;30315;46.072;14.474;2023-12-14T14:44:26;7.22;;;6.53;;
44606;SDS011;30315;46.072;14.474;2023-12-14T14:46:58;11.40;;;6.60;;
44606;SDS011;30315;46.072;14.474;2023-12-14T14:50:05;12.00;;;8.13;;
44606;SDS011;30315;46.072;14.474;2023-12-14T14:52:39;9.43;;;7.50;;
44606;SDS011;30315;46.072;14.474;2023-12-14T14:55:07;7.85;;;6.78;;
44606;SDS011;30315;46.072;14.474;2023-12-14T14:57:42;7.55;;;6.65;;
44606;SDS011;30315;46.072;14.474;2023-12-14T15:00:16;6.65;;;6.07;;
44606;SDS011;30315;46.072;14.474;2023-12-14T15:02:48;10.05;;;7.13;;
44606;SDS011;30315;46.072;14.474;2023-12-14T15:05:30;9.90;;;8.10;;
44606;SDS011;30315;46.072;14.474;2023-12-14T15:07:58;8.18;;;7.43;;
44606;SDS011;30315;46.072;14.474;2023-12-14T15:10:33;10.38;;;8.23;;
44606;SDS011;30315;46.072;14.474;2023-12-14T15:13:01;10.82;;;7.88;;
44606;SDS011;30315;46.072;14.474;2023-12-14T15:15:29;10.15;;;8.27;;
44606;SDS011;30315;46.072;14.474;2023-12-14T15:17:56;10.43;;;8.18;;
44606;SDS011;30315;46.072;14.474;2023-12-14T15:20:26;8.07;;;6.80;;
44606;SDS011;30315;46.072;14.474;2023-12-14T15:22:54;9.38;;;6.75;;
44606;SDS011;30315;46.072;14.474;2023-12-14T15:25:32;11.65;;;7.82;;
44606;SDS011;30315;46.072;14.474;2023-12-14T15:28:06;8.48;;;7.63;;
44606;SDS011;30315;46.072;14.474;2023-12-14T15:34:29;8.05;;;7.40;;
44606;SDS011;30315;46.072;14.474;2023-12-14T15:37:15;17.95;;;8.95;;
44606;SDS011;30315;46.072;14.474;2023-12-14T15:39:45;13.45;;;8.60;;
44606;SDS011;30315;46.072;14.474;2023-12-14T15:42:17;16.05;;;7.72;;
44606;SDS011;30315;46.072;14.474;2023-12-14T15:44:51;7.40;;;6.70;;
44606;SDS011;30315;46.072;14.474;2023-12-14T15:47:19;10.75;;;7.57;;
44606;SDS011;30315;46.072;14.474;2023-12-14T15:49:47;9.52;;;6.32;;
44606;SDS011;30315;46.072;14.474;2023-12-14T15:52:15;10.25;;;7.88;;
44606;SDS011;30315;46.072;14.474;2023-12-14T15:57:46;11.27;;;7.97;;
44606;SDS011;30315;46.072;14.474;2023-12-14T16:03:26;12.90;;;8.25;;
44606;SDS011;30315;46.072;14.474;2023-12-14T16:06:05;13.52;;;7.43;;
44606;SDS011;30315;46.072;14.474;2023-12-14T16:09:44;10.15;;;8.73;;
44606;SDS011;30315;46.072;14.474;2023-12-14T16:13:20;10.68;;;9.18;;
44606;SDS011;30315;46.072;14.474;2023-12-14T16:15:58;10.10;;;7.65;;
44606;SDS011;30315;46.072;14.474;2023-12-14T16:18:30;14.18;;;9.55;;
44606;SDS011;30315;46.072;14.474;2023-12-14T16:20:58;12.48;;;7.85;;
44606;SDS011;30315;46.072;14.474;2023-12-14T16:23:26;11.65;;;8.38;;
44606;SDS011;30315;46.072;14.474;2023-12-14T16:26:11;16.02;;;9.02;;
44606;SDS011;30315;46.072;14.474;2023-12-14T16:28:52;11.88;;;9.82;;
44606;SDS011;30315;46.072;14.474;2023-12-14T16:31:22;10.95;;;9.85;;
44606;SDS011;30315;46.072;14.474;2023-12-14T16:33:50;9.25;;;8.40;;
44606;SDS011;30315;46.072;14.474;2023-12-14T16:36:18;13.05;;;9.50;;
44606;SDS011;30315;46.072;14.474;2023-12-14T16:38:48;9.77;;;8.32;;
44606;SDS011;30315;46.072;14.474;2023-12-14T16:41:19;11.07;;;8.60;;
44606;SDS011;30315;46.072;14.474;2023-12-14T16:44:12;12.88;;;8.82;;
44606;SDS011;30315;46.072;14.474;2023-12-14T16:50:18;14.25;;;9.05;;
44606;SDS011;30315;46.072;14.474;2023-12-14T16:53:32;14.27;;;9.60;;
44606;SDS011;30315;46.072;14.474;2023-12-14T17:03:50;24.83;;;10.30;;
44606;SDS011;30315;46.072;14.474;2023-12-14T17:06:23;10.02;;;8.20;;
44606;SDS011;30315;46.072;14.474;2023-12-14T17:09:12;13.90;;;9.75;;
44606;SDS011;30315;46.072;14.474;2023-12-14T17:15:01;11.00;;;9.90;;
44606;SDS011;30315;46.072;14.474;2023-12-14T17:41:11;10.38;;;7.00;;
44606;SDS011;30315;46.072;14.474;2023-12-14T17:51:02;12.57;;;8.27;;
44606;SDS011;30315;46.072;14.474;2023-12-14T17:53:36;12.93;;;8.43;;
44606;SDS011;30315;46.072;14.474;2023-12-14T17:56:29;7.85;;;6.88;;
44606;SDS011;30315;46.072;14.474;2023-12-14T18:41:11;8.77;;;7.85;;
44606;SDS011;30315;46.072;14.474;2023-12-14T18:43:39;17.50;;;9.05;;
44606;SDS011;30315;46.072;14.474;2023-12-14T18:46:12;9.15;;;7.35;;
44606;SDS011;30315;46.072;14.474;2023-12-14T18:48:45;23.88;;;10.05;;
44606;SDS011;30315;46.072;14.474;2023-12-14T18:51:15;9.57;;;8.60;;
44606;SDS011;30315;46.072;14.474;2023-12-14T18:53:43;13.90;;;9.15;;
44606;SDS011;30315;46.072;14.474;2023-12-14T18:56:14;17.25;;;9.45;;
44606;SDS011;30315;46.072;14.474;2023-12-14T18:58:42;12.57;;;9.20;;
44606;SDS011;30315;46.072;14.474;2023-12-14T19:01:14;17.80;;;10.38;;
44606;SDS011;30315;46.072;14.474;2023-12-14T19:03:44;14.27;;;9.75;;
44606;SDS011;30315;46.072;14.474;2023-12-14T19:06:13;11.93;;;8.97;;
44606;SDS011;30315;46.072;14.474;2023-12-14T19:30:23;17.20;;;9.93;;
44606;SDS011;30315;46.072;14.474;2023-12-14T19:35:58;10.40;;;8.23;;
44606;SDS011;30315;46.072;14.474;2023-12-14T19:45:10;13.57;;;7.97;;
44606;SDS011;30315;46.072;14.474;2023-12-14T19:48:23;9.52;;;7.18;;
44606;SDS011;30315;46.072;14.474;2023-12-14T19:50:53;7.32;;;6.45;;
44606;SDS011;30315;46.072;14.474;2023-12-14T19:56:11;6.55;;;5.95;;
44606;SDS011;30315;46.072;14.474;2023-12-14T19:58:43;13.02;;;7.72;;
44606;SDS011;30315;46.072;14.474;2023-12-14T20:05:27;8.10;;;6.22;;
44606;SDS011;30315;46.072;14.474;2023-12-14T20:10:52;12.20;;;7.95;;
44606;SDS011;30315;46.072;14.474;2023-12-14T20:21:39;8.85;;;8.02;;
44606;SDS011;30315;46.072;14.474;2023-12-14T20:56:08;17.70;;;9.10;;
44606;SDS011;30315;46.072;14.474;2023-12-14T21:02:52;13.45;;;10.10;;
44606;SDS011;30315;46.072;14.474;2023-12-14T21:09:58;11.40;;;8.80;;
44606;SDS011;30315;46.072;14.474;2023-12-14T21:15:45;12.15;;;10.13;;
44606;SDS011;30315;46.072;14.474;2023-12-14T21:18:29;23.60;;;10.52;;
44606;SDS011;30315;46.072;14.474;2023-12-14T21:20:58;13.30;;;9.07;;
44606;SDS011;30315;46.072;14.474;2023-12-14T21:23:28;19.42;;;8.20;;
44606;SDS011;30315;46.072;14.474;2023-12-14T21:25:56;13.52;;;9.85;;
44606;SDS011;30315;46.072;14.474;2023-12-14T21:28:40;15.68;;;8.80;;
44606;SDS011;30315;46.072;14.474;2023-12-14T21:31:08;15.43;;;9.57;;
44606;SDS011;30315;46.072;14.474;2023-12-14T21:33:37;10.02;;;6.95;;
44606;SDS011;30315;46.072;14.474;2023-12-14T21:36:06;9.02;;;8.25;;
44606;SDS011;30315;46.072;14.474;2023-12-14T21:38:37;15.07;;;9.90;;
44606;SDS011;30315;46.072;14.474;2023-12-14T21:41:05;14.73;;;8.93;;
44606;SDS011;30315;46.072;14.474;2023-12-14T21:43:37;13.25;;;8.40;;
44606;SDS011;30315;46.072;14.474;2023-12-14T21:46:05;11.73;;;8.35;;
44606;SDS011;30315;46.072;14.474;2023-12-14T21:48:33;9.95;;;8.07;;
44606;SDS011;30315;46.072;14.474;2023-12-14T21:51:00;12.82;;;8.02;;
44606;SDS011;30315;46.072;14.474;2023-12-14T21:53:28;14.65;;;8.07;;
44606;SDS011;30315;46.072;14.474;2023-12-14T21:55:58;12.40;;;8.27;;
44606;SDS011;30315;46.072;14.474;2023-12-14T21:58:26;13.27;;;8.88;;
44606;SDS011;30315;46.072;14.474;2023-12-14T22:00:54;16.73;;;9.02;;
44606;SDS011;30315;46.072;14.474;2023-12-14T22:03:29;10.88;;;8.27;;
44606;SDS011;30315;46.072;14.474;2023-12-14T22:05:59;12.05;;;8.45;;
44606;SDS011;30315;46.072;14.474;2023-12-14T22:08:27;10.75;;;8.45;;
44606;SDS011;30315;46.072;14.474;2023-12-14T22:11:02;12.13;;;6.85;;
44606;SDS011;30315;46.072;14.474;2023-12-14T22:13:30;13.73;;;8.20;;
44606;SDS011;30315;46.072;14.474;2023-12-14T22:15:58;13.77;;;7.35;;
44606;SDS011;30315;46.072;14.474;2023-12-14T22:18:29;7.57;;;6.45;;
44606;SDS011;30315;46.072;14.474;2023-12-14T22:20:58;8.90;;;6.68;;
44606;SDS011;30315;46.072;14.474;2023-12-14T22:34:45;7.53;;;5.95;;
44606;SDS011;30315;46.072;14.474;2023-12-14T22:37:13;7.70;;;6.88;;
44606;SDS011;30315;46.072;14.474;2023-12-14T22:39:43;7.22;;;5.85;;
44606;SDS011;30315;46.072;14.474;2023-12-14T22:42:17;7.20;;;5.25;;
44606;SDS011;30315;46.072;14.474;2023-12-14T22:44:51;12.02;;;7.78;;
44606;SDS011;30315;46.072;14.474;2023-12-14T22:49:58;9.20;;;7.47;;
44606;SDS011;30315;46.072;14.474;2023-12-14T22:52:53;13.20;;;7.63;;
44606;SDS011;30315;46.072;14.474;2023-12-14T22:55:21;7.63;;;6.82;;
44606;SDS011;30315;46.072;14.474;2023-12-14T22:57:56;7.07;;;6.53;;